createdAt,value
2022-10-06T00:01:03.264Z,96332.78
2022-10-06T00:03:31.120Z,96336.25
2022-10-06T00:06:02.908Z,96348.31
2022-10-06T00:08:35.096Z,96342.06
2022-10-06T00:11:02.156Z,96329.94
2022-10-06T00:13:30.515Z,96338.59
2022-10-06T00:15:57.495Z,96341.34
2022-10-06T00:18:24.396Z,96337.66
2022-10-06T00:20:59.251Z,96341.22
2022-10-06T00:23:27.542Z,96337.97
2022-10-06T00:25:54.680Z,96322.09
2022-10-06T00:28:21.775Z,96331.53
2022-10-06T00:30:48.767Z,96338.88
2022-10-06T00:33:17.855Z,96326.66
2022-10-06T00:35:46.833Z,96323.69
2022-10-06T00:38:16.031Z,96330.56
2022-10-06T00:40:46.022Z,96319.69
2022-10-06T00:43:46.442Z,96318.75
2022-10-06T00:46:32.864Z,96318.28
2022-10-06T00:49:12.569Z,96311.19
2022-10-06T00:51:47.428Z,96306.50
2022-10-06T00:54:14.760Z,96321.03
2022-10-06T00:56:41.587Z,96299.00
2022-10-06T00:59:12.187Z,96306.84
2022-10-06T01:01:44.532Z,96303.56
2022-10-06T01:04:14.474Z,96300.81
2022-10-06T01:06:45.347Z,96300.13
2022-10-06T01:09:17.284Z,96296.28
2022-10-06T01:11:47.323Z,96295.22
2022-10-06T01:14:14.925Z,96288.09
2022-10-06T01:16:43.938Z,96291.28
2022-10-06T01:19:24.834Z,96290.59
2022-10-06T01:21:54.431Z,96289.09
2022-10-06T01:24:21.187Z,96278.16
2022-10-06T01:26:50.736Z,96274.72
2022-10-06T01:29:18.482Z,96275.94
2022-10-06T01:31:45.932Z,96283.38
2022-10-06T01:34:13.797Z,96276.97
2022-10-06T01:36:41.588Z,96272.66
2022-10-06T01:39:09.350Z,96275.69
2022-10-06T01:41:39.152Z,96284.31
2022-10-06T01:44:05.905Z,96279.19
2022-10-06T01:46:32.708Z,96270.91
2022-10-06T01:48:59.668Z,96276.66
2022-10-06T01:51:26.570Z,96279.19
2022-10-06T01:53:53.302Z,96272.66
2022-10-06T01:56:22.160Z,96280.50
2022-10-06T01:58:49.067Z,96278.31
2022-10-06T02:01:16.452Z,96271.88
2022-10-06T02:03:43.538Z,96280.31
2022-10-06T02:06:10.790Z,96275.84
2022-10-06T02:08:37.802Z,96272.84
2022-10-06T02:11:09.323Z,96280.25
2022-10-06T02:13:41.033Z,96283.94
2022-10-06T02:16:10.299Z,96279.81
2022-10-06T02:18:37.790Z,96283.34
2022-10-06T02:21:05.454Z,96278.19
2022-10-06T02:23:33.030Z,96277.03
2022-10-06T02:26:02.043Z,96267.09
2022-10-06T02:28:30.066Z,96279.97
2022-10-06T02:31:07.509Z,96270.56
2022-10-06T02:33:38.048Z,96257.97
2022-10-06T02:36:11.557Z,96263.72
2022-10-06T02:38:39.399Z,96274.50
2022-10-06T02:41:08.964Z,96279.53
2022-10-06T02:43:36.904Z,96268.44
2022-10-06T02:46:06.981Z,96271.88
2022-10-06T02:48:35.576Z,96285.97
2022-10-06T02:51:07.858Z,96287.31
2022-10-06T02:53:37.841Z,96278.72
2022-10-06T02:56:19.154Z,96287.81
2022-10-06T02:58:50.474Z,96279.78
2022-10-06T03:01:28.653Z,96289.91
2022-10-06T03:03:59.640Z,96296.91
2022-10-06T03:06:29.293Z,96285.56
2022-10-06T03:09:19.202Z,96281.03
2022-10-06T03:11:46.403Z,96289.41
2022-10-06T03:14:22.093Z,96282.13
2022-10-06T03:16:54.975Z,96280.31
2022-10-06T03:19:25.973Z,96277.03
2022-10-06T03:21:53.794Z,96284.84
2022-10-06T03:24:24.572Z,96282.56
2022-10-06T03:26:55.396Z,96273.94
2022-10-06T03:29:22.291Z,96266.44
2022-10-06T03:31:53.518Z,96279.41
2022-10-06T03:34:20.422Z,96282.28
2022-10-06T03:36:47.921Z,96280.16
2022-10-06T03:39:18.120Z,96273.00
2022-10-06T03:41:45.124Z,96274.94
2022-10-06T03:44:11.923Z,96279.50
2022-10-06T03:46:41.753Z,96271.38
2022-10-06T03:49:08.777Z,96246.19
2022-10-06T03:51:38.773Z,96277.22
2022-10-06T03:54:10.882Z,96275.91
2022-10-06T03:56:41.198Z,96266.03
2022-10-06T03:59:13.641Z,96275.75
2022-10-06T04:01:45.476Z,96277.22
2022-10-06T04:04:15.061Z,96264.28
2022-10-06T04:06:44.844Z,96265.22
2022-10-06T04:09:18.041Z,96268.34
2022-10-06T04:11:45.636Z,96263.06
2022-10-06T04:14:15.572Z,96275.19
2022-10-06T04:16:46.341Z,96266.97
2022-10-06T04:19:16.342Z,96277.63
2022-10-06T04:21:48.297Z,96269.25
2022-10-06T04:24:19.081Z,96277.50
2022-10-06T04:26:52.383Z,96269.59
2022-10-06T04:29:21.133Z,96272.25
2022-10-06T04:31:54.523Z,96278.25
2022-10-06T04:34:33.648Z,96274.63
2022-10-06T04:37:00.620Z,96287.31
2022-10-06T04:39:27.504Z,96286.31
2022-10-06T04:41:55.692Z,96291.88
2022-10-06T04:44:26.768Z,96289.63
2022-10-06T04:46:55.763Z,96283.53
2022-10-06T04:49:23.364Z,96295.47
2022-10-06T04:51:52.712Z,96286.59
2022-10-06T04:54:19.622Z,96292.03
2022-10-06T04:56:50.235Z,96299.69
2022-10-06T04:59:21.143Z,96293.00
2022-10-06T05:01:48.757Z,96282.06
2022-10-06T05:04:15.539Z,96297.63
2022-10-06T05:06:43.140Z,96293.84
2022-10-06T05:09:13.381Z,96308.94
2022-10-06T05:11:46.762Z,96306.75
2022-10-06T05:14:16.089Z,96304.94
2022-10-06T05:16:45.940Z,96301.94
2022-10-06T05:19:14.110Z,96294.66
2022-10-06T05:21:41.058Z,96304.13
2022-10-06T05:24:11.020Z,96304.69
2022-10-06T05:26:38.488Z,96300.63
2022-10-06T05:29:09.049Z,96299.78
2022-10-06T05:31:38.920Z,96296.09
2022-10-06T05:34:07.169Z,96296.28
2022-10-06T05:36:34.729Z,96302.97
2022-10-06T05:39:03.815Z,96296.88
2022-10-06T05:41:38.196Z,96296.25
2022-10-06T05:44:09.073Z,96290.06
2022-10-06T05:46:38.139Z,96289.84
2022-10-06T05:49:09.585Z,96295.81
2022-10-06T05:51:42.148Z,96296.28
2022-10-06T05:54:20.264Z,96291.69
2022-10-06T05:56:47.056Z,96292.00
2022-10-06T05:59:13.825Z,96306.88
2022-10-06T06:01:42.447Z,96306.66
2022-10-06T06:04:23.117Z,96301.91
2022-10-06T06:06:52.741Z,96308.97
2022-10-06T06:09:22.671Z,96310.69
2022-10-06T06:11:55.214Z,96302.34
2022-10-06T06:15:02.106Z,96295.34
2022-10-06T06:17:34.520Z,96292.88
2022-10-06T06:20:04.155Z,96312.69
2022-10-06T06:22:30.857Z,96301.69
2022-10-06T06:24:58.681Z,96299.06
2022-10-06T06:27:26.266Z,96304.41
2022-10-06T06:29:53.637Z,96307.59
2022-10-06T06:32:20.405Z,96319.66
2022-10-06T06:34:48.325Z,96309.66
2022-10-06T06:37:15.572Z,96305.66
2022-10-06T06:39:45.802Z,96307.28
2022-10-06T06:42:12.759Z,96309.41
2022-10-06T06:44:41.056Z,96309.06
2022-10-06T06:47:25.929Z,96317.06
2022-10-06T06:49:56.001Z,96310.97
2022-10-06T06:52:26.148Z,96311.81
2022-10-06T06:54:54.777Z,96306.03
2022-10-06T06:57:21.553Z,96295.81
2022-10-06T06:59:52.393Z,96297.63
2022-10-06T07:02:19.900Z,96293.03
2022-10-06T07:04:48.209Z,96297.97
2022-10-06T07:07:17.284Z,96294.31
2022-10-06T07:09:44.157Z,96290.06
2022-10-06T07:12:12.686Z,96294.34
2022-10-06T07:15:09.805Z,96288.06
2022-10-06T07:18:01.413Z,96294.25
2022-10-06T07:20:48.297Z,96280.13
2022-10-06T07:23:39.646Z,96286.53
2022-10-06T07:26:11.298Z,96285.59
2022-10-06T07:28:38.679Z,96280.22
2022-10-06T07:31:06.733Z,96279.72
2022-10-06T07:33:34.087Z,96274.69
2022-10-06T07:36:04.604Z,96249.47
2022-10-06T07:38:33.098Z,96273.28
2022-10-06T07:41:18.841Z,96276.00
2022-10-06T07:43:53.781Z,96272.34
2022-10-06T07:46:21.024Z,96264.97
2022-10-06T07:48:56.351Z,96275.09
2022-10-06T07:51:24.690Z,96272.44
2022-10-06T07:53:51.863Z,96269.78
2022-10-06T07:56:24.924Z,96272.66
2022-10-06T07:58:56.120Z,96276.09
2022-10-06T08:01:25.580Z,96270.22
2022-10-06T08:03:52.396Z,96267.75
2022-10-06T08:06:19.823Z,96268.81
2022-10-06T08:08:52.643Z,96272.75
2022-10-06T08:11:22.649Z,96274.31
2022-10-06T08:13:51.801Z,96263.19
2022-10-06T08:16:21.180Z,96261.84
2022-10-06T08:18:53.645Z,96265.25
2022-10-06T08:21:26.124Z,96269.13
2022-10-06T08:23:53.833Z,96260.16
2022-10-06T08:26:22.420Z,96258.94
2022-10-06T08:28:52.438Z,96255.63
2022-10-06T08:31:22.818Z,96253.19
2022-10-06T08:33:55.262Z,96259.31
2022-10-06T08:36:27.063Z,96256.56
2022-10-06T08:38:56.971Z,96255.81
2022-10-06T08:41:35.419Z,96253.91
2022-10-06T08:44:07.764Z,96251.44
2022-10-06T08:46:44.681Z,96243.19
2022-10-06T08:49:19.097Z,96238.72
2022-10-06T08:52:41.230Z,96236.56
2022-10-06T08:55:26.369Z,96236.03
2022-10-06T08:58:11.808Z,96236.38
2022-10-06T09:00:38.854Z,96236.94
2022-10-06T09:03:07.570Z,96237.91
2022-10-06T09:05:34.988Z,96235.47
2022-10-06T09:08:01.737Z,96230.75
2022-10-06T09:10:50.224Z,96223.81
2022-10-06T09:13:22.358Z,96225.88
2022-10-06T09:16:00.194Z,96225.69
2022-10-06T09:19:03.481Z,96221.66
2022-10-06T09:21:34.564Z,96222.94
2022-10-06T09:24:07.734Z,96213.81
2022-10-06T09:26:34.628Z,96219.97
2022-10-06T09:29:01.765Z,96218.66
2022-10-06T09:31:31.997Z,96215.16
2022-10-06T09:34:18.552Z,96209.66
2022-10-06T09:37:01.939Z,96197.59
2022-10-06T09:39:36.371Z,96196.72
2022-10-06T09:42:13.457Z,96184.66
2022-10-06T09:44:51.498Z,96202.81
2022-10-06T09:47:34.867Z,96197.91
2022-10-06T09:50:04.975Z,96196.16
2022-10-06T09:52:31.709Z,96174.50
2022-10-06T09:55:11.426Z,96177.22
2022-10-06T09:57:39.560Z,96176.69
2022-10-06T10:00:29.501Z,96171.00
2022-10-06T10:03:03.940Z,96176.25
2022-10-06T10:05:34.058Z,96171.28
2022-10-06T10:08:03.506Z,96170.91
2022-10-06T10:10:30.786Z,96161.28
2022-10-06T10:12:59.813Z,96168.59
2022-10-06T10:15:31.322Z,96154.22
2022-10-06T10:18:04.116Z,96158.88
2022-10-06T10:20:36.341Z,96155.44
2022-10-06T10:23:09.453Z,96153.97
2022-10-06T10:25:36.382Z,96151.63
2022-10-06T10:28:17.380Z,96159.06
2022-10-06T10:30:55.548Z,96143.69
2022-10-06T10:34:05.047Z,96145.28
2022-10-06T10:36:49.808Z,96148.44
2022-10-06T10:39:30.350Z,96132.66
2022-10-06T10:42:02.647Z,96139.19
2022-10-06T10:44:37.259Z,96131.78
2022-10-06T10:47:28.193Z,96131.16
2022-10-06T10:50:17.465Z,96125.34
2022-10-06T10:52:48.842Z,96110.31
2022-10-06T10:55:21.867Z,96111.94
2022-10-06T10:57:51.051Z,96108.66
2022-10-06T11:00:20.709Z,96104.69
2022-10-06T11:02:47.999Z,96102.31
2022-10-06T11:05:54.434Z,96108.63
2022-10-06T11:08:27.111Z,96106.34
2022-10-06T11:10:58.918Z,96096.25
2022-10-06T11:13:37.777Z,96091.13
2022-10-06T11:16:22.535Z,96091.59
2022-10-06T11:19:14.832Z,96079.03
2022-10-06T11:21:59.354Z,96082.34
2022-10-06T11:24:44.450Z,96075.69
2022-10-06T11:27:52.281Z,96077.63
2022-10-06T11:30:20.978Z,96068.66
2022-10-06T11:33:22.008Z,96067.00
2022-10-06T11:35:49.283Z,96064.91
2022-10-06T11:38:30.274Z,96056.31
2022-10-06T11:41:21.266Z,96061.34
2022-10-06T11:44:13.944Z,96055.84
2022-10-06T11:47:06.231Z,96045.66
2022-10-06T11:49:53.882Z,96041.09
2022-10-06T11:52:20.522Z,96030.78
2022-10-06T11:54:54.282Z,96036.28
2022-10-06T11:57:30.229Z,96039.44
2022-10-06T12:00:06.101Z,96033.81
2022-10-06T12:02:35.658Z,96029.34
2022-10-06T12:05:54.910Z,96022.31
2022-10-06T12:08:07.750Z,96017.53
2022-10-06T12:10:35.070Z,96020.13
2022-10-06T12:14:26.559Z,96019.19
2022-10-06T12:19:31.026Z,96006.72
2022-10-06T12:22:31.287Z,96004.69
2022-10-06T12:25:13.156Z,96009.03
2022-10-06T12:27:57.948Z,96004.78
2022-10-06T12:30:43.352Z,96007.69
2022-10-06T12:33:17.526Z,95999.91
2022-10-06T12:35:45.589Z,96003.03
2022-10-06T12:38:30.885Z,95992.78
2022-10-06T12:40:58.244Z,95993.38
2022-10-06T12:43:28.323Z,95990.94
2022-10-06T12:46:12.242Z,95991.03
2022-10-06T12:49:06.391Z,95990.78
2022-10-06T12:51:36.228Z,95988.03
2022-10-06T12:54:19.540Z,95986.97
2022-10-06T12:57:17.590Z,95977.22
2022-10-06T12:59:44.743Z,95984.91
2022-10-06T13:02:22.087Z,95978.47
2022-10-06T13:04:53.406Z,95974.66
2022-10-06T13:07:32.022Z,95969.09
2022-10-06T13:10:14.262Z,95967.47
2022-10-06T13:12:46.697Z,95964.28
2022-10-06T13:18:02.476Z,95962.91
2022-10-06T13:20:48.243Z,95957.06
2022-10-06T13:23:34.161Z,95956.34
2022-10-06T13:26:04.625Z,95950.13
2022-10-06T13:28:37.189Z,95953.16
2022-10-06T13:31:32.536Z,95945.81
2022-10-06T13:34:06.936Z,95953.25
2022-10-06T13:36:38.626Z,95946.84
2022-10-06T13:39:22.255Z,95943.69
2022-10-06T13:42:02.418Z,95951.25
2022-10-06T13:44:42.255Z,95950.03
2022-10-06T13:47:16.254Z,95943.53
2022-10-06T13:49:56.989Z,95953.88
2022-10-06T13:52:30.215Z,95949.59
2022-10-06T13:55:00.054Z,95952.16
2022-10-06T13:57:38.002Z,95947.13
2022-10-06T14:00:24.730Z,95947.41
2022-10-06T14:02:54.897Z,95950.56
2022-10-06T14:05:32.467Z,95948.91
2022-10-06T14:08:15.280Z,95945.75
2022-10-06T14:11:11.651Z,95951.38
2022-10-06T14:14:00.953Z,95953.06
2022-10-06T14:16:28.999Z,95936.28
2022-10-06T14:19:02.477Z,95953.06
2022-10-06T14:21:32.095Z,95950.00
2022-10-06T14:24:01.858Z,95955.25
2022-10-06T14:26:32.899Z,95956.09
2022-10-06T14:29:00.719Z,95960.13
2022-10-06T14:31:28.601Z,95960.63
2022-10-06T14:33:57.150Z,95959.34
2022-10-06T14:36:35.787Z,95962.13
2022-10-06T14:39:04.492Z,95960.88
2022-10-06T14:41:31.922Z,95967.03
2022-10-06T14:44:05.856Z,95967.59
2022-10-06T14:46:33.891Z,95965.81
2022-10-06T14:49:03.085Z,95965.59
2022-10-06T14:51:33.190Z,95971.88
2022-10-06T14:54:01.622Z,95969.31
2022-10-06T14:56:31.669Z,95971.03
2022-10-06T14:59:05.609Z,95976.13
2022-10-06T15:01:34.912Z,95977.19
2022-10-06T15:04:11.285Z,95978.22
2022-10-06T15:06:57.498Z,95979.94
2022-10-06T15:09:24.482Z,95985.97
2022-10-06T15:11:51.851Z,95984.16
2022-10-06T15:14:18.709Z,95982.41
2022-10-06T15:16:46.786Z,95969.19
2022-10-06T15:19:13.817Z,95985.06
2022-10-06T15:21:45.421Z,95981.06
2022-10-06T15:24:14.904Z,95989.53
2022-10-06T15:27:01.258Z,95951.00
2022-10-06T15:29:28.753Z,95994.31
2022-10-06T15:31:55.679Z,95992.16
2022-10-06T15:34:27.718Z,96001.03
2022-10-06T15:36:56.235Z,95989.63
2022-10-06T15:39:25.525Z,95996.41
2022-10-06T15:41:53.085Z,95986.56
2022-10-06T15:44:20.875Z,95997.31
2022-10-06T15:46:49.255Z,96005.72
2022-10-06T15:49:21.724Z,95996.41
2022-10-06T15:51:52.801Z,96008.44
2022-10-06T15:54:23.623Z,95990.00
2022-10-06T15:56:56.225Z,96002.34
2022-10-06T15:59:24.685Z,96000.28
2022-10-06T16:01:55.657Z,95995.19
2022-10-06T16:04:25.545Z,95993.78
2022-10-06T16:06:56.514Z,96003.59
2022-10-06T16:09:38.106Z,96005.69
2022-10-06T16:12:09.281Z,96005.50
2022-10-06T16:14:36.036Z,96013.69
2022-10-06T16:17:05.066Z,96021.47
2022-10-06T16:19:32.959Z,96014.53
2022-10-06T16:22:00.879Z,96012.19
2022-10-06T16:24:28.576Z,96012.69
2022-10-06T16:26:57.999Z,96022.84
2022-10-06T16:29:24.923Z,96024.63
2022-10-06T16:31:53.066Z,96026.69
2022-10-06T16:34:20.092Z,96028.88
2022-10-06T16:36:46.990Z,96022.56
2022-10-06T16:39:21.954Z,96032.59
2022-10-06T16:41:49.970Z,96032.22
2022-10-06T16:44:17.480Z,96031.03
2022-10-06T16:46:45.061Z,96036.56
2022-10-06T16:49:12.372Z,96043.28
2022-10-06T16:51:42.161Z,96042.25
2022-10-06T16:54:11.712Z,96049.38
2022-10-06T16:56:41.491Z,96048.56
2022-10-06T16:59:19.784Z,96048.28
2022-10-06T17:01:47.889Z,96067.97
2022-10-06T17:04:25.292Z,96068.16
2022-10-06T17:06:54.613Z,96063.59
2022-10-06T17:09:26.239Z,96070.09
2022-10-06T17:12:00.040Z,96066.16
2022-10-06T17:14:28.583Z,96070.72
2022-10-06T17:16:58.636Z,96059.56
2022-10-06T17:19:28.761Z,96071.28
2022-10-06T17:21:58.949Z,96077.53
2022-10-06T17:24:28.231Z,96081.59
2022-10-06T17:26:55.919Z,96078.16
2022-10-06T17:29:24.247Z,96075.59
2022-10-06T17:31:59.285Z,96079.88
2022-10-06T17:34:31.841Z,96078.97
2022-10-06T17:37:01.752Z,96085.81
2022-10-06T17:39:28.479Z,96085.88
2022-10-06T17:41:56.759Z,96084.66
2022-10-06T17:44:26.359Z,96084.88
2022-10-06T17:46:55.649Z,96087.69
2022-10-06T17:49:24.226Z,96083.78
2022-10-06T17:51:53.743Z,96091.91
2022-10-06T17:54:22.315Z,96099.50
2022-10-06T17:56:52.438Z,96084.94
2022-10-06T17:59:21.716Z,96091.09
2022-10-06T18:01:51.216Z,96104.34
2022-10-06T18:04:18.666Z,96103.25
2022-10-06T18:06:47.003Z,96107.13
2022-10-06T18:09:15.520Z,96107.59
2022-10-06T18:11:44.427Z,96103.13
2022-10-06T18:14:21.984Z,96109.97
2022-10-06T18:16:55.903Z,96097.38
2022-10-06T18:19:31.261Z,96097.94
2022-10-06T18:22:00.781Z,96107.34
2022-10-06T18:24:30.066Z,96108.97
2022-10-06T18:26:59.751Z,96110.31
2022-10-06T18:29:32.409Z,96112.53
2022-10-06T18:33:19.595Z,96109.19
2022-10-06T18:37:34.996Z,96116.53
2022-10-06T18:40:05.847Z,96108.69
2022-10-06T18:42:33.132Z,96112.56
2022-10-06T18:45:18.325Z,96103.50
2022-10-06T18:48:03.717Z,96118.44
2022-10-06T18:50:31.102Z,96115.19
2022-10-06T18:52:57.932Z,96127.25
2022-10-06T18:55:26.427Z,96128.41
2022-10-06T18:57:53.468Z,96127.66
2022-10-06T19:00:20.330Z,96121.69
2022-10-06T19:02:49.415Z,96125.06
2022-10-06T19:05:17.489Z,96135.66
2022-10-06T19:07:45.001Z,96116.66
2022-10-06T19:10:12.253Z,96126.56
2022-10-06T19:12:39.087Z,96128.59
2022-10-06T19:15:06.253Z,96125.88
2022-10-06T19:17:33.137Z,96135.25
2022-10-06T19:19:59.801Z,96125.50
2022-10-06T19:22:26.723Z,96131.00
2022-10-06T19:24:53.497Z,96135.22
2022-10-06T19:27:24.966Z,96138.25
2022-10-06T19:29:54.396Z,96143.09
2022-10-06T19:32:27.644Z,96139.38
2022-10-06T19:34:58.918Z,96140.56
2022-10-06T19:37:30.909Z,96148.25
2022-10-06T19:39:58.185Z,96155.66
2022-10-06T19:42:57.340Z,96147.06
2022-10-06T19:45:24.154Z,96160.25
2022-10-06T19:47:51.433Z,96155.72
2022-10-06T19:50:19.148Z,96155.19
2022-10-06T19:52:45.964Z,96152.47
2022-10-06T19:55:13.897Z,96155.97
2022-10-06T19:57:40.841Z,96154.72
2022-10-06T20:00:08.844Z,96152.38
2022-10-06T20:02:43.259Z,96166.19
2022-10-06T20:05:15.238Z,96158.31
2022-10-06T20:07:44.252Z,96165.19
2022-10-06T20:10:12.613Z,96159.78
2022-10-06T20:12:41.447Z,96163.72
2022-10-06T20:15:09.999Z,96165.19
2022-10-06T20:17:36.855Z,96170.06
2022-10-06T20:20:04.376Z,96160.34
2022-10-06T20:22:31.796Z,96158.06
2022-10-06T20:24:58.876Z,96163.69
2022-10-06T20:27:25.641Z,96148.91
2022-10-06T20:29:53.199Z,96157.41
2022-10-06T20:32:19.935Z,96168.25
2022-10-06T20:34:46.713Z,96155.22
2022-10-06T20:37:13.412Z,96163.78
2022-10-06T20:39:59.176Z,96166.41
2022-10-06T20:42:27.983Z,96176.09
2022-10-06T20:44:54.679Z,96171.72
2022-10-06T20:47:21.662Z,96170.09
2022-10-06T20:49:54.367Z,96174.34
2022-10-06T20:52:23.200Z,96172.72
2022-10-06T20:54:51.303Z,96173.25
2022-10-06T20:57:18.445Z,96170.31
2022-10-06T20:59:46.132Z,96175.31
2022-10-06T21:02:13.457Z,96179.03
2022-10-06T21:04:45.956Z,96177.97
2022-10-06T21:07:12.805Z,96170.34
2022-10-06T21:09:39.695Z,96162.69
2022-10-06T21:12:06.642Z,96176.47
2022-10-06T21:14:34.182Z,96167.97
2022-10-06T21:17:01.771Z,96176.97
2022-10-06T21:19:30.187Z,96183.88
2022-10-06T21:21:57.231Z,96178.03
2022-10-06T21:24:25.119Z,96177.78
2022-10-06T21:26:53.045Z,96171.69
2022-10-06T21:29:20.538Z,96182.25
2022-10-06T21:31:47.320Z,96180.16
2022-10-06T21:34:15.235Z,96195.25
2022-10-06T21:36:43.322Z,96188.59
2022-10-06T21:39:11.202Z,96187.50
2022-10-06T21:41:39.491Z,96193.25
2022-10-06T21:44:09.224Z,96190.72
2022-10-06T21:46:37.367Z,96189.66
2022-10-06T21:49:07.113Z,96178.56
2022-10-06T21:51:33.990Z,96197.06
2022-10-06T21:54:01.851Z,96189.66
2022-10-06T21:56:31.352Z,96185.97
2022-10-06T21:58:58.971Z,96191.00
2022-10-06T22:01:29.203Z,96191.25
2022-10-06T22:03:56.838Z,96178.50
2022-10-06T22:06:24.061Z,96179.63
2022-10-06T22:08:51.078Z,96178.84
2022-10-06T22:11:26.641Z,96180.03
2022-10-06T22:13:56.930Z,96167.34
2022-10-06T22:16:25.395Z,96165.38
2022-10-06T22:18:53.035Z,96179.63
2022-10-06T22:21:28.497Z,96184.09
2022-10-06T22:23:57.746Z,96186.31
2022-10-06T22:26:25.418Z,96183.97
2022-10-06T22:28:54.055Z,96180.75
2022-10-06T22:31:25.750Z,96171.75
2022-10-06T22:34:01.675Z,96172.41
2022-10-06T22:36:28.798Z,96170.94
2022-10-06T22:38:56.551Z,96174.03
2022-10-06T22:41:23.969Z,96182.06
2022-10-06T22:43:57.469Z,96182.63
2022-10-06T22:46:35.502Z,96175.56
2022-10-06T22:49:05.182Z,96174.88
2022-10-06T22:51:31.910Z,96170.78
2022-10-06T22:53:59.955Z,96104.84
2022-10-06T22:56:32.211Z,96169.38
2022-10-06T22:58:59.940Z,96169.91
2022-10-06T23:01:28.462Z,96167.81
2022-10-06T23:03:55.709Z,96176.66
2022-10-06T23:06:22.779Z,96165.91
2022-10-06T23:08:49.605Z,96152.78
2022-10-06T23:11:19.002Z,96170.81
2022-10-06T23:13:46.550Z,96176.66
2022-10-06T23:16:15.378Z,96185.22
2022-10-06T23:18:43.848Z,96185.84
2022-10-06T23:21:22.095Z,96170.59
2022-10-06T23:23:54.309Z,96181.75
2022-10-06T23:26:22.593Z,96178.94
2022-10-06T23:29:07.552Z,96184.50
2022-10-06T23:31:34.510Z,96180.84
2022-10-06T23:34:01.243Z,96184.03
2022-10-06T23:36:28.012Z,96192.16
2022-10-06T23:38:54.910Z,96178.03
2022-10-06T23:41:21.856Z,96181.59
2022-10-06T23:43:49.003Z,96183.09
2022-10-06T23:46:16.116Z,96186.28
2022-10-06T23:48:43.350Z,96176.94
2022-10-06T23:51:15.487Z,96191.31
2022-10-06T23:53:43.093Z,96189.84
2022-10-06T23:56:10.691Z,96185.44
2022-10-06T23:58:37.686Z,96189.03
